Portada
METAR-TAF:

METAR-TAF

Aeroports :

Vínnitsia, Ucraïna

latitud: 49-14-23N, longitud: 028-36-50E, altitud: 974 m

Observació

L'informe es va fer fa 7 hores i 47 minuts, a les 18:00 UTC
Vent 6 kt del Sud/Sud-Est
Temperatura 4°C
Humitat 75%
Pressió 1009 hPa
Visibilitat 10 km o més

METAR: UKWW 221800Z 16003MPS 9999 NSC 04/00 Q1009 R13/490140 NOSIG

Hora: 03:47 (01:47 UTC)

Pronòstic

L'informe es va fer fa 8 hores i 42 minuts, a les 17:05 UTC
Pronòstic vàlid del 22 a les 18 UTC al 23 a les 03 UTC
Vent 10 kt del Sud/Sud-Est
Visibilitat 10 km o més
Núvols disperses a una alçada de 3000 ft

TAF: UKWW 221705Z 2218/2303 16005MPS 9999 SCT030 TX04/2218Z TNM01/2303Z

Observacions i pronòstics meteorològics de més de 4000 aeroports (METAR i TAF).

Les estacions disponibles són els punts grocs i vermells al mapa.

Posi el ratolí al punt desitjat per veure el nom de l'estació.

Feu clic per veure les observacions i els pronòstics meteorològics.

Per canviar el mapa: feu clic els botons verds amb una creu de color negre per apropar; al botó verd amb un guió per allunyar la imatge; o en les fletxes verdes per a mapes adjacents.


METAR-TAF: